Aeroporto :
LOGIN :

Iscrizione | Disclaimer

   EN    FR    IT 

 










Sommario :    VFR   VFR Marginale   IFR   IFR Intensivo   IFR Molto Intensivo
Visibilità : 
Base nubi : 
>= 8 km
>= 3000ft
5 / 8 km
1000 / 3000 ft
1500m / 5 km
500 / 1000 ft
800 / 1500m
200 / 500 ft
< 800m
< 200 ft
Simboli :   Temporali  Nebbia  Neve Forte  Precipitazioni Forti  Vento > 20 kt
SIGMETs :   Varie  Temporali  Ghiacco  Turbolenza  Onda orograficha  Ceneri Vulcaniche






- Altitudine del aeroporto : 646 ft
- Codice IATA : VNO


EYVI - Vilnius int.

ULTIMO METAR :
  • 022220Z 04008KT 9999 -SHRA BKN009CB 09/08 Q1008 BECMG OVC005

METARs OBSOLETI :
  • 022150Z 04010KT 9999 -SHRA BKN010CB 09/08 Q1009 NOSIG
  • 022120Z 04010KT 9999 OVC012 09/08 Q1009 NOSIG
  • 022050Z 04010KT 9999 OVC012 09/07 Q1009 TEMPO OVC005
  • 022020Z 04010KT 9999 OVC010 09/08 Q1009 TEMPO OVC005
  • 021950Z 04011KT 9999 OVC014 09/07 Q1009 BECMG OVC010

TAF TAF EYVI
Valido dal 02 a 18 ore il 03 a 18 ore UTC


021705Z 0218/0318 06012KT 9000 BKN030
TEMPO 0218/0221 5000 SHRA SCT010 BKN020CB
FM022100 5000 -RA BR OVC010
TEMPO 0221/0304 3000 SHRA BKN005 BKN012CB
BECMG 0306/0307 9000 BKN030
TEMPO 0309/0318 BKN020CB



MetMap, La meteo Aeronautica in un colpo d'occhio ! - Copyright ORBIFLY Dicembre 2007 - Disclaimer

ORBIFLY MET'MAP TEAM :

Programmazione e sviluppo : Alexandra Zaïnal
Concezione : Baudouin d'Aumeries
Aiuto per la programmazione : Marc-Olivier Méhu
Supporto tecnico e logistico : Manuel Goepfert
Aiuto per la traduzione : Arnaldo La Scala

Contatto : metmap@orbifly.com




FONTI E CREDITI :

   NOAA